Time;durP1;ratioP1;P1;durP2;ratioP2;P2;SDS_P1;SDS_P2;PMS_P1;PMS_P2;Temp;Humidity;BMP_temperature;BMP_pressure;BME280_temperature;BME280_humidity;BME280_pressure;Samples;Min_cycle;Max_cycle;Signal;HPM_P1;HPM_P2
2024/02/05 00:02:04;;;;;;;37.67;7.85;;;;;;;;;;5111400;28;20020;-61
2024/02/05 00:04:29;;;;;;;26.45;6.38;;;;;;;;;;5111421;28;20047;-61
2024/02/05 00:06:55;;;;;;;33.03;7.75;;;;;;;;;;5111270;28;20036;-60
2024/02/05 00:09:20;;;;;;;38.70;6.90;;;;;;;;;;5111704;28;20047;-62
2024/02/05 00:11:45;;;;;;;37.83;8.50;;;;;;;;;;5111796;28;20064;-62
2024/02/05 00:14:10;;;;;;;33.50;6.70;;;;;;;;;;5112642;28;20023;-62
2024/02/05 00:16:36;;;;;;;36.03;8.38;;;;;;;;;;5110081;28;20032;-60
2024/02/05 00:19:01;;;;;;;28.85;8.20;;;;;;;;;;5112175;28;20032;-61
2024/02/05 00:21:27;;;;;;;25.55;7.40;;;;;;;;;;5111784;28;20032;-61
2024/02/05 00:23:52;;;;;;;43.03;8.35;;;;;;;;;;5110245;28;20047;-61
2024/02/05 00:26:18;;;;;;;44.85;7.78;;;;;;;;;;5113405;28;20047;-61
2024/02/05 00:28:43;;;;;;;37.80;8.20;;;;;;;;;;5110721;28;20103;-61
2024/02/05 00:31:09;;;;;;;43.10;9.25;;;;;;;;;;5112958;28;20028;-61
2024/02/05 00:33:35;;;;;;;36.92;6.13;;;;;;;;;;5112874;28;20032;-61
2024/02/05 00:36:02;;;;;;;39.73;8.00;;;;;;;;;;5111036;28;20047;-61
2024/02/05 00:38:28;;;;;;;40.03;7.10;;;;;;;;;;5112820;28;20044;-61
2024/02/05 00:40:53;;;;;;;36.70;8.70;;;;;;;;;;5112700;28;20272;-60
2024/02/05 00:43:19;;;;;;;49.37;8.23;;;;;;;;;;5113074;28;20240;-61
2024/02/05 00:45:44;;;;;;;38.63;9.13;;;;;;;;;;5110812;28;20293;-61
2024/02/05 00:48:10;;;;;;;37.40;7.95;;;;;;;;;;5112162;28;20039;-61
2024/02/05 00:50:37;;;;;;;42.72;8.02;;;;;;;;;;5112263;28;20027;-61
2024/02/05 00:53:03;;;;;;;40.97;8.10;;;;;;;;;;5111572;28;20024;-60
2024/02/05 00:55:28;;;;;;;35.00;6.70;;;;;;;;;;5112374;28;20351;-60
2024/02/05 00:57:54;;;;;;;42.63;8.93;;;;;;;;;;5112146;28;20298;-62
2024/02/05 01:00:19;;;;;;;41.77;10.07;;;;;;;;;;5111346;28;20035;-60
2024/02/05 01:02:45;;;;;;;34.50;8.43;;;;;;;;;;5110310;28;20272;-60
2024/02/05 01:05:10;;;;;;;44.70;8.77;;;;;;;;;;5109532;28;20279;-61
2024/02/05 01:07:36;;;;;;;53.60;9.77;;;;;;;;;;5111062;28;20095;-61
2024/02/05 01:10:02;;;;;;;37.55;10.07;;;;;;;;;;5110825;28;20024;-60
2024/02/05 01:12:28;;;;;;;34.83;8.57;;;;;;;;;;5110930;28;20042;-61
2024/02/05 01:14:53;;;;;;;42.77;10.20;;;;;;;;;;5112350;28;20032;-60
2024/02/05 01:17:19;;;;;;;31.87;8.00;;;;;;;;;;5112224;28;20283;-61
2024/02/05 01:19:44;;;;;;;41.13;8.15;;;;;;;;;;5114314;28;20086;-60
2024/02/05 01:22:10;;;;;;;43.22;7.57;;;;;;;;;;5111618;28;20043;-61
2024/02/05 01:24:35;;;;;;;49.45;10.50;;;;;;;;;;5116595;28;20029;-61
2024/02/05 01:27:01;;;;;;;36.40;9.57;;;;;;;;;;5114764;28;20035;-62
2024/02/05 01:29:27;;;;;;;35.33;9.07;;;;;;;;;;5111359;28;20061;-60
2024/02/05 01:31:52;;;;;;;54.60;10.27;;;;;;;;;;5110445;28;20032;-60
2024/02/05 01:34:18;;;;;;;42.90;8.05;;;;;;;;;;5111607;28;20027;-59
2024/02/05 01:36:44;;;;;;;42.90;8.00;;;;;;;;;;5111448;28;20079;-60
2024/02/05 01:39:10;;;;;;;47.78;9.10;;;;;;;;;;5110638;28;20039;-60
2024/02/05 01:41:36;;;;;;;39.97;8.40;;;;;;;;;;5108189;28;20057;-61
2024/02/05 01:44:02;;;;;;;52.87;7.87;;;;;;;;;;5110617;28;20260;-60
2024/02/05 01:46:28;;;;;;;49.07;7.20;;;;;;;;;;5112222;28;20299;-60
2024/02/05 01:48:57;;;;;;;36.13;8.67;;;;;;;;;;5111449;28;20051;-60
2024/02/05 01:51:23;;;;;;;36.20;8.60;;;;;;;;;;5109667;28;20292;-60
2024/02/05 01:53:48;;;;;;;;;;;;;;;;;;5112291;28;20544;-61
2024/02/05 01:56:14;;;;;;;50.13;11.67;;;;;;;;;;5127201;28;19908;-60
2024/02/05 01:58:40;;;;;;;60.53;10.20;;;;;;;;;;5111103;28;20036;-60
2024/02/05 02:01:06;;;;;;;54.90;10.32;;;;;;;;;;5110910;28;20264;-61
2024/02/05 02:03:40;;;;;;;41.63;9.80;;;;;;;;;;5110771;28;20036;-62
2024/02/05 02:06:06;;;;;;;40.43;10.57;;;;;;;;;;5109944;28;20276;-60
2024/02/05 02:08:32;;;;;;;;;;;;;;;;;;5110929;28;20268;-61
2024/02/05 02:10:57;;;;;;;42.40;9.97;;;;;;;;;;5110209;28;19926;-61
2024/02/05 02:13:22;;;;;;;50.67;9.33;;;;;;;;;;5110670;28;20032;-60
2024/02/05 02:15:49;;;;;;;60.65;12.43;;;;;;;;;;5108694;28;20016;-61
2024/02/05 02:18:17;;;;;;;49.88;10.00;;;;;;;;;;5110919;28;20032;-62
2024/02/05 02:20:45;;;;;;;39.27;8.90;;;;;;;;;;5112401;28;20038;-60
2024/02/05 02:23:33;;;;;;;40.33;7.93;;;;;;;;;;5112487;28;20283;-60
2024/02/05 02:25:58;;;;;;;;;;;;;;;;;;5110578;28;20273;-60
2024/02/05 02:28:24;;;;;;;34.17;7.80;;;;;;;;;;5114259;28;19911;-61
2024/02/05 02:30:50;;;;;;;42.43;7.90;;;;;;;;;;5113909;28;20051;-60
2024/02/05 02:33:18;;;;;;;34.88;8.90;;;;;;;;;;5114633;28;20032;-62
2024/02/05 02:35:52;;;;;;;27.43;8.07;;;;;;;;;;5114167;28;20032;-61
2024/02/05 02:38:21;;;;;;;33.57;7.90;;;;;;;;;;5114094;28;20272;-60
2024/02/05 02:40:49;;;;;;;39.07;8.30;;;;;;;;;;5114453;28;20252;-60
2024/02/05 02:43:16;;;;;;;43.87;8.37;;;;;;;;;;5114511;28;20271;-60
2024/02/05 02:45:43;;;;;;;36.00;7.67;;;;;;;;;;5113260;28;20265;-61
2024/02/05 02:48:09;;;;;;;49.63;8.17;;;;;;;;;;5111692;28;20288;-60
2024/02/05 02:50:34;;;;;;;40.22;8.70;;;;;;;;;;5113646;28;20253;-60
2024/02/05 02:52:59;;;;;;;40.13;8.30;;;;;;;;;;5112996;28;20039;-60
2024/02/05 02:55:25;;;;;;;40.13;8.68;;;;;;;;;;5114034;28;20054;-61
2024/02/05 02:57:51;;;;;;;42.63;10.38;;;;;;;;;;5114090;28;20060;-61
2024/02/05 03:00:16;;;;;;;37.20;11.97;;;;;;;;;;5114877;28;20039;-60
2024/02/05 03:02:41;;;;;;;44.03;9.40;;;;;;;;;;5113271;28;20796;-62
2024/02/05 03:05:07;;;;;;;46.08;9.00;;;;;;;;;;5113575;28;20042;-62
2024/02/05 03:07:36;;;;;;;48.03;7.13;;;;;;;;;;5113560;28;20296;-61
2024/02/05 03:10:05;;;;;;;42.43;8.33;;;;;;;;;;5112849;28;20016;-60
2024/02/05 03:12:31;;;;;;;35.77;7.07;;;;;;;;;;5112386;28;20296;-61
2024/02/05 03:14:56;;;;;;;34.67;8.13;;;;;;;;;;5113991;28;20332;-61
2024/02/05 03:17:22;;;;;;;41.97;7.73;;;;;;;;;;5113703;28;20028;-61
2024/02/05 03:19:47;;;;;;;29.77;7.87;;;;;;;;;;5112408;28;20261;-61
2024/02/05 03:22:13;;;;;;;30.50;7.13;;;;;;;;;;5111918;28;20279;-60
2024/02/05 03:24:38;;;;;;;25.67;6.73;;;;;;;;;;5111514;28;20295;-60
2024/02/05 03:27:04;;;;;;;33.58;6.97;;;;;;;;;;5113033;28;21315;-60
2024/02/05 03:29:29;;;;;;;31.30;9.40;;;;;;;;;;5110934;28;20091;-62
2024/02/05 03:31:55;;;;;;;41.00;7.80;;;;;;;;;;5111656;28;20028;-61
2024/02/05 03:34:20;;;;;;;42.60;9.93;;;;;;;;;;5112636;28;20053;-61
2024/02/05 03:36:46;;;;;;;45.28;8.13;;;;;;;;;;5111889;28;20028;-62
2024/02/05 03:39:11;;;;;;;39.13;8.33;;;;;;;;;;5113772;28;20032;-60
2024/02/05 03:41:37;;;;;;;47.30;9.73;;;;;;;;;;5111517;28;20320;-60
2024/02/05 03:44:03;;;;;;;42.53;9.53;;;;;;;;;;5113927;28;20279;-60
2024/02/05 03:46:28;;;;;;;42.63;9.97;;;;;;;;;;5118259;28;20272;-61
2024/02/05 03:48:55;;;;;;;40.53;9.02;;;;;;;;;;5114665;28;20064;-61
2024/02/05 03:51:21;;;;;;;45.73;9.77;;;;;;;;;;5117134;28;20036;-60
2024/02/05 03:53:47;;;;;;;31.30;7.65;;;;;;;;;;5115942;28;20268;-62
2024/02/05 03:56:13;;;;;;;;;;;;;;;;;;5116843;28;20103;-60
2024/02/05 03:58:38;;;;;;;40.00;7.60;;;;;;;;;;5117473;28;19908;-61
2024/02/05 04:01:04;;;;;;;51.83;8.73;;;;;;;;;;5118238;28;20035;-60
2024/02/05 04:03:29;;;;;;;32.42;8.23;;;;;;;;;;5113458;28;20040;-62
2024/02/05 04:05:57;;;;;;;31.23;8.77;;;;;;;;;;5112562;28;20043;-61
2024/02/05 04:08:24;;;;;;;31.60;8.67;;;;;;;;;;5112114;28;20032;-60
2024/02/05 04:10:53;;;;;;;48.87;8.40;;;;;;;;;;5112015;28;20253;-61
2024/02/05 04:13:19;;;;;;;43.23;7.93;;;;;;;;;;5112265;28;20257;-61
2024/02/05 04:15:45;;;;;;;50.37;9.50;;;;;;;;;;5111516;28;20278;-61
2024/02/05 04:18:10;;;;;;;43.10;7.97;;;;;;;;;;5113504;28;20276;-60
2024/02/05 04:20:36;;;;;;;41.08;6.78;;;;;;;;;;5115644;28;21552;-61
2024/02/05 04:23:01;;;;;;;33.07;7.67;;;;;;;;;;5114269;28;20047;-61
2024/02/05 04:25:27;;;;;;;38.53;7.23;;;;;;;;;;5114689;28;20027;-61
2024/02/05 04:27:53;;;;;;;37.13;6.85;;;;;;;;;;5112010;28;20038;-61
2024/02/05 04:30:18;;;;;;;42.93;9.33;;;;;;;;;;5111608;28;20036;-61
2024/02/05 04:32:43;;;;;;;42.53;8.47;;;;;;;;;;5109828;28;20047;-61
2024/02/05 04:35:09;;;;;;;47.50;8.77;;;;;;;;;;5111286;28;20295;-61
2024/02/05 04:37:35;;;;;;;48.55;7.70;;;;;;;;;;5112051;28;20043;-61
2024/02/05 04:40:00;;;;;;;58.17;8.40;;;;;;;;;;5111684;28;20091;-60
2024/02/05 04:42:26;;;;;;;34.33;7.83;;;;;;;;;;5112355;28;20047;-60
2024/02/05 04:44:51;;;;;;;33.20;7.10;;;;;;;;;;5111207;28;20067;-61
2024/02/05 04:47:17;;;;;;;40.80;8.68;;;;;;;;;;5111365;28;20032;-61
2024/02/05 04:49:43;;;;;;;33.53;7.63;;;;;;;;;;5111545;28;20028;-60
2024/02/05 04:52:09;;;;;;;38.37;8.43;;;;;;;;;;5110957;28;20031;-61
2024/02/05 04:54:35;;;;;;;34.97;9.70;;;;;;;;;;5112190;28;20252;-60
2024/02/05 04:57:00;;;;;;;37.77;7.10;;;;;;;;;;5111939;28;20300;-61
2024/02/05 04:59:26;;;;;;;38.83;8.88;;;;;;;;;;5112677;28;20032;-61
2024/02/05 05:01:51;;;;;;;33.13;8.10;;;;;;;;;;5110338;28;20072;-60
2024/02/05 05:04:17;;;;;;;37.92;7.40;;;;;;;;;;5111065;28;20052;-60
2024/02/05 05:06:43;;;;;;;38.80;7.70;;;;;;;;;;5110971;28;20082;-60
2024/02/05 05:09:11;;;;;;;26.70;6.95;;;;;;;;;;5109804;28;20036;-60
2024/02/05 05:11:37;;;;;;;37.03;8.13;;;;;;;;;;5110561;28;20040;-59
2024/02/05 05:14:02;;;;;;;41.63;8.03;;;;;;;;;;5113742;28;20259;-61
2024/02/05 05:16:30;;;;;;;37.22;8.43;;;;;;;;;;5114182;28;20024;-62
2024/02/05 05:18:58;;;;;;;42.87;7.47;;;;;;;;;;5113285;28;20088;-60
2024/02/05 05:21:24;;;;;;;37.10;7.63;;;;;;;;;;5116185;28;20264;-60
2024/02/05 05:23:49;;;;;;;29.50;6.90;;;;;;;;;;5111956;28;20501;-60
2024/02/05 05:26:15;;;;;;;32.07;6.57;;;;;;;;;;5111418;28;20031;-63
2024/02/05 05:28:43;;;;;;;23.80;6.18;;;;;;;;;;5111359;28;20032;-60
2024/02/05 05:31:08;;;;;;;37.27;7.50;;;;;;;;;;5114106;28;20063;-61
2024/02/05 05:33:34;;;;;;;37.07;6.77;;;;;;;;;;5114207;28;20263;-61
2024/02/05 05:35:59;;;;;;;22.43;6.63;;;;;;;;;;5111001;28;20251;-61
2024/02/05 05:38:25;;;;;;;27.80;6.18;;;;;;;;;;5110504;28;20501;-60
2024/02/05 05:40:50;;;;;;;24.33;6.00;;;;;;;;;;5111464;28;20063;-58
2024/02/05 05:43:15;;;;;;;27.80;6.37;;;;;;;;;;5110927;28;20028;-61
2024/02/05 05:45:40;;;;;;;32.03;7.43;;;;;;;;;;5111288;28;20036;-61
2024/02/05 05:48:07;;;;;;;26.27;5.73;;;;;;;;;;5111037;28;20092;-60
2024/02/05 05:50:32;;;;;;;32.78;7.07;;;;;;;;;;5112375;28;20027;-60
2024/02/05 05:52:58;;;;;;;27.17;6.87;;;;;;;;;;5111430;28;20044;-64
2024/02/05 05:55:23;;;;;;;51.10;7.80;;;;;;;;;;5111546;28;20264;-60
2024/02/05 05:57:49;;;;;;;30.60;7.27;;;;;;;;;;5110876;28;20315;-60
2024/02/05 06:00:14;;;;;;;34.40;7.13;;;;;;;;;;5111587;28;20050;-62
2024/02/05 06:02:40;;;;;;;32.78;6.38;;;;;;;;;;5114087;28;20051;-61
2024/02/05 06:05:05;;;;;;;26.40;6.60;;;;;;;;;;5115156;28;20059;-62
2024/02/05 06:07:31;;;;;;;34.03;7.72;;;;;;;;;;5114894;28;20080;-61
2024/02/05 06:09:56;;;;;;;40.73;8.83;;;;;;;;;;5118767;28;20056;-61
2024/02/05 06:12:22;;;;;;;38.97;7.63;;;;;;;;;;5117045;28;20028;-61
2024/02/05 06:14:47;;;;;;;43.23;9.93;;;;;;;;;;5116095;28;20024;-61
2024/02/05 06:17:13;;;;;;;37.97;8.63;;;;;;;;;;5114944;28;20024;-61
2024/02/05 06:19:38;;;;;;;33.28;8.27;;;;;;;;;;5115219;28;20016;-61
2024/02/05 06:22:03;;;;;;;29.33;7.93;;;;;;;;;;5114268;28;20046;-61
2024/02/05 06:24:29;;;;;;;31.30;6.13;;;;;;;;;;5115439;28;20052;-61
2024/02/05 06:26:55;;;;;;;22.83;5.80;;;;;;;;;;5131743;27;20032;-60
2024/02/05 06:29:20;;;;;;;28.20;7.57;;;;;;;;;;5117146;28;20047;-61
2024/02/05 06:31:46;;;;;;;28.35;7.00;;;;;;;;;;5116580;28;20268;-61
2024/02/05 06:34:11;;;;;;;27.53;7.30;;;;;;;;;;5115278;28;20020;-61
2024/02/05 06:36:37;;;;;;;41.35;7.68;;;;;;;;;;5118784;28;20100;-60
2024/02/05 06:39:03;;;;;;;36.85;8.23;;;;;;;;;;5118229;28;20032;-61
2024/02/05 06:41:30;;;;;;;37.85;9.15;;;;;;;;;;5115032;28;20032;-61
2024/02/05 06:43:56;;;;;;;31.23;8.37;;;;;;;;;;5116661;28;20035;-61
2024/02/05 06:46:22;;;;;;;36.30;8.17;;;;;;;;;;5112702;28;20276;-60
2024/02/05 06:48:47;;;;;;;32.38;7.82;;;;;;;;;;5113300;28;20036;-61
2024/02/05 06:51:13;;;;;;;36.13;7.45;;;;;;;;;;5112369;28;20054;-61
2024/02/05 06:53:38;;;;;;;30.77;7.20;;;;;;;;;;5111250;28;20024;-61
2024/02/05 06:56:04;;;;;;;32.67;9.03;;;;;;;;;;5111133;28;20036;-61
2024/02/05 06:58:30;;;;;;;28.42;6.68;;;;;;;;;;5112884;28;20451;-61
2024/02/05 07:00:56;;;;;;;36.13;7.28;;;;;;;;;;5113185;28;20094;-61
2024/02/05 07:03:21;;;;;;;27.10;7.23;;;;;;;;;;5111934;28;20040;-62
2024/02/05 07:05:47;;;;;;;;;;;;;;;;;;5115050;28;20052;-62
2024/02/05 07:08:12;;;;;;;41.37;7.27;;;;;;;;;;5114586;28;19934;-61
2024/02/05 07:10:38;;;;;;;30.05;6.30;;;;;;;;;;5109490;28;20103;-60
2024/02/05 07:13:04;;;;;;;41.33;9.07;;;;;;;;;;5112071;28;20043;-60
2024/02/05 07:15:33;;;;;;;30.08;6.97;;;;;;;;;;5109350;28;20020;-61
2024/02/05 07:17:58;;;;;;;39.63;9.13;;;;;;;;;;5111643;28;20040;-60
2024/02/05 07:20:24;;;;;;;49.07;8.60;;;;;;;;;;5112169;28;20337;-60
2024/02/05 07:22:49;;;;;;;37.13;6.75;;;;;;;;;;5109216;28;20039;-62
2024/02/05 07:25:15;;;;;;;33.95;8.23;;;;;;;;;;5111165;28;20044;-61
2024/02/05 07:27:40;;;;;;;31.10;7.40;;;;;;;;;;5110577;28;20058;-60
2024/02/05 07:30:06;;;;;;;39.37;9.23;;;;;;;;;;5110748;28;20035;-61
2024/02/05 07:32:31;;;;;;;31.05;8.45;;;;;;;;;;5110488;28;20031;-61
2024/02/05 07:34:57;;;;;;;28.67;5.83;;;;;;;;;;5111920;28;20032;-61
2024/02/05 07:37:22;;;;;;;29.67;6.97;;;;;;;;;;5110939;28;20332;-60
2024/02/05 07:39:48;;;;;;;51.70;9.25;;;;;;;;;;5110037;28;20031;-60
2024/02/05 07:42:14;;;;;;;30.05;7.68;;;;;;;;;;5111426;28;20036;-61
2024/02/05 07:44:40;;;;;;;34.47;9.05;;;;;;;;;;5111381;28;20033;-61
2024/02/05 07:47:05;;;;;;;49.50;8.30;;;;;;;;;;5110984;28;20024;-60
2024/02/05 07:49:30;;;;;;;30.17;7.63;;;;;;;;;;5109369;28;20032;-61
2024/02/05 07:51:56;;;;;;;31.30;7.13;;;;;;;;;;5048002;28;1732831;-61
2024/02/05 07:54:24;;;;;;;25.97;7.27;;;;;;;;;;5112678;28;20039;-60
2024/02/05 07:56:49;;;;;;;32.33;8.73;;;;;;;;;;5111997;28;20287;-60
2024/02/05 07:59:15;;;;;;;35.30;7.93;;;;;;;;;;5105780;28;20273;-61
2024/02/05 08:01:40;;;;;;;40.10;7.97;;;;;;;;;;5101257;28;20292;-60
2024/02/05 08:04:06;;;;;;;34.75;7.25;;;;;;;;;;5113369;28;20032;-61
2024/02/05 08:06:32;;;;;;;35.97;8.80;;;;;;;;;;5114739;28;20033;-60
2024/02/05 08:08:58;;;;;;;35.13;8.52;;;;;;;;;;5113394;28;20032;-62
2024/02/05 08:11:26;;;;;;;36.17;7.78;;;;;;;;;;5109069;28;20061;-61
2024/02/05 08:13:52;;;;;;;47.97;9.40;;;;;;;;;;5111833;28;20032;-62
2024/02/05 08:16:17;;;;;;;32.03;7.25;;;;;;;;;;5120991;28;20258;-61
2024/02/05 08:18:43;;;;;;;38.57;7.90;;;;;;;;;;5109780;28;20040;-62
2024/02/05 08:21:08;;;;;;;46.03;8.30;;;;;;;;;;5103383;28;20360;-61
2024/02/05 08:23:36;;;;;;;43.60;7.88;;;;;;;;;;5115294;28;20543;-61
2024/02/05 08:26:03;;;;;;;27.80;6.90;;;;;;;;;;5118174;28;20039;-60
2024/02/05 08:28:28;;;;;;;30.30;8.27;;;;;;;;;;5111736;28;20348;-61
2024/02/05 08:30:54;;;;;;;40.90;9.33;;;;;;;;;;5115461;28;20036;-61
2024/02/05 08:33:19;;;;;;;40.08;8.70;;;;;;;;;;5112953;28;20048;-61
2024/02/05 08:35:45;;;;;;;38.00;11.57;;;;;;;;;;5110711;28;20035;-61
2024/02/05 08:38:10;;;;;;;45.60;10.50;;;;;;;;;;5111219;28;20050;-61
2024/02/05 08:40:36;;;;;;;42.45;11.50;;;;;;;;;;5114384;28;20414;-61
2024/02/05 08:43:01;;;;;;;47.60;11.80;;;;;;;;;;5109537;28;20032;-61
2024/02/05 08:45:29;;;;;;;41.38;11.85;;;;;;;;;;5115237;28;20024;-62
2024/02/05 08:47:54;;;;;;;38.20;10.93;;;;;;;;;;5102502;28;20036;-61
2024/02/05 08:50:22;;;;;;;37.08;12.13;;;;;;;;;;5112163;28;20271;-61
2024/02/05 08:52:48;;;;;;;41.73;11.40;;;;;;;;;;5109701;28;20027;-62
2024/02/05 08:55:13;;;;;;;37.60;10.20;;;;;;;;;;5114669;28;20257;-60
2024/02/05 08:57:40;;;;;;;38.37;11.80;;;;;;;;;;5107177;28;20325;-61
2024/02/05 09:00:09;;;;;;;48.30;11.73;;;;;;;;;;5114187;28;20083;-60
2024/02/05 09:02:35;;;;;;;45.50;11.73;;;;;;;;;;5114657;28;20288;-61
2024/02/05 09:05:00;;;;;;;50.93;11.37;;;;;;;;;;5104010;28;20376;-60
2024/02/05 09:07:27;;;;;;;40.53;10.93;;;;;;;;;;5112146;28;20028;-60
2024/02/05 09:09:52;;;;;;;32.45;9.45;;;;;;;;;;5112753;28;20049;-61
2024/02/05 09:12:18;;;;;;;45.33;10.87;;;;;;;;;;5107113;28;20032;-62
2024/02/05 09:14:44;;;;;;;49.38;10.93;;;;;;;;;;5102489;28;20024;-61
2024/02/05 09:17:09;;;;;;;60.27;11.43;;;;;;;;;;5114259;28;20420;-61
2024/02/05 09:19:34;;;;;;;39.23;10.37;;;;;;;;;;5114031;28;20028;-60
2024/02/05 09:21:59;;;;;;;39.17;10.73;;;;;;;;;;5108300;28;20047;-62
2024/02/05 09:24:25;;;;;;;33.23;8.60;;;;;;;;;;5113283;28;20032;-60
2024/02/05 09:26:50;;;;;;;41.60;8.67;;;;;;;;;;5107270;28;20032;-61
2024/02/05 09:29:15;;;;;;;28.03;8.37;;;;;;;;;;5110436;28;20023;-60
2024/02/05 09:31:40;;;;;;;33.70;7.93;;;;;;;;;;5113381;28;20039;-61
2024/02/05 09:34:05;;;;;;;32.23;6.77;;;;;;;;;;5107017;28;20035;-60
2024/02/05 09:36:31;;;;;;;41.97;8.05;;;;;;;;;;5108707;28;20036;-61
2024/02/05 09:38:58;;;;;;;32.97;7.13;;;;;;;;;;5122608;28;20055;-61
2024/02/05 09:41:26;;;;;;;34.73;8.53;;;;;;;;;;5108363;28;20016;-60
2024/02/05 09:43:51;;;;;;;39.60;8.70;;;;;;;;;;5106888;28;20336;-61
2024/02/05 09:46:18;;;;;;;40.00;8.50;;;;;;;;;;5112666;28;20286;-61
2024/02/05 09:48:44;;;;;;;36.20;7.80;;;;;;;;;;5108649;28;20028;-61
2024/02/05 09:51:11;;;;;;;29.73;6.53;;;;;;;;;;5110680;28;20280;-60
2024/02/05 09:53:39;;;;;;;33.65;6.97;;;;;;;;;;5104232;28;20076;-61
2024/02/05 09:56:06;;;;;;;42.43;7.33;;;;;;;;;;5110139;28;20036;-60
2024/02/05 09:58:31;;;;;;;21.43;5.63;;;;;;;;;;5109879;28;20269;-60
2024/02/05 10:00:57;;;;;;;40.87;7.87;;;;;;;;;;5110880;28;20288;-62
2024/02/05 10:03:24;;;;;;;29.02;6.30;;;;;;;;;;5100722;28;20261;-60
2024/02/05 10:05:49;;;;;;;30.92;6.68;;;;;;;;;;5109211;28;20039;-61
2024/02/05 10:08:15;;;;;;;46.10;7.80;;;;;;;;;;5110048;28;20048;-61
2024/02/05 10:10:42;;;;;;;31.85;7.15;;;;;;;;;;5103304;28;20020;-60
2024/02/05 10:13:08;;;;;;;29.97;6.40;;;;;;;;;;5110534;28;20028;-62
2024/02/05 10:15:33;;;;;;;22.10;5.77;;;;;;;;;;5109937;28;20277;-61
2024/02/05 10:17:59;;;;;;;31.53;6.17;;;;;;;;;;5111057;28;20281;-61
2024/02/05 10:20:28;;;;;;;29.17;6.25;;;;;;;;;;5106247;28;20047;-60
2024/02/05 10:22:54;;;;;;;33.20;7.03;;;;;;;;;;5104441;28;20092;-60
2024/02/05 10:25:19;;;;;;;31.47;7.07;;;;;;;;;;5096141;28;20268;-61
2024/02/05 10:27:45;;;;;;;36.92;7.93;;;;;;;;;;5107283;28;20383;-61
2024/02/05 10:30:11;;;;;;;34.25;7.78;;;;;;;;;;5113286;28;20048;-60
2024/02/05 10:32:36;;;;;;;23.47;5.60;;;;;;;;;;5113587;28;20088;-61
2024/02/05 10:35:02;;;;;;;43.20;6.77;;;;;;;;;;5103216;28;20276;-60
2024/02/05 10:37:27;;;;;;;22.25;5.78;;;;;;;;;;5109416;28;20033;-60
2024/02/05 10:40:02;;;;;;;34.43;5.97;;;;;;;;;;5121915;28;20036;-61
2024/02/05 10:42:28;;;;;;;31.33;6.07;;;;;;;;;;5108861;28;20093;-61
2024/02/05 10:44:54;;;;;;;31.83;5.77;;;;;;;;;;5106746;28;20265;-61
2024/02/05 10:47:19;;;;;;;17.97;4.90;;;;;;;;;;5107951;28;20332;-60
2024/02/05 10:49:46;;;;;;;27.83;6.35;;;;;;;;;;5116761;28;20028;-61
2024/02/05 10:52:12;;;;;;;28.10;6.70;;;;;;;;;;5113601;28;20044;-61
2024/02/05 10:54:38;;;;;;;25.98;6.72;;;;;;;;;;5105541;28;20257;-63
2024/02/05 10:57:04;;;;;;;25.92;6.30;;;;;;;;;;5105859;28;20095;-61
2024/02/05 10:59:30;;;;;;;30.10;6.22;;;;;;;;;;5119007;28;20102;-62
2024/02/05 11:02:00;;;;;;;32.67;6.83;;;;;;;;;;5113213;28;20099;-61
2024/02/05 11:04:27;;;;;;;44.13;7.10;;;;;;;;;;5116684;28;20295;-61
2024/02/05 11:06:54;;;;;;;36.08;7.18;;;;;;;;;;5106150;28;20248;-61
2024/02/05 11:09:23;;;;;;;32.90;5.93;;;;;;;;;;5118522;28;20048;-61
2024/02/05 11:11:52;;;;;;;29.77;6.27;;;;;;;;;;5110874;28;20287;-61
2024/02/05 11:14:18;;;;;;;35.47;6.10;;;;;;;;;;5115593;28;20264;-62
2024/02/05 11:16:44;;;;;;;27.45;7.00;;;;;;;;;;5110991;28;20256;-61
2024/02/05 11:19:10;;;;;;;;;;;;;;;;;;5113590;28;20047;-61
2024/02/05 11:21:38;;;;;;;20.83;5.63;;;;;;;;;;5113565;28;19908;-61
2024/02/05 11:24:04;;;;;;;30.40;6.10;;;;;;;;;;5102026;28;20032;-61
2024/02/05 11:26:30;;;;;;;28.02;6.25;;;;;;;;;;5114582;28;20260;-61
2024/02/05 11:28:55;;;;;;;25.23;5.55;;;;;;;;;;5114163;28;20036;-61
2024/02/05 11:31:24;;;;;;;29.03;6.10;;;;;;;;;;5107912;28;20032;-62
2024/02/05 11:34:03;;;;;;;33.87;6.70;;;;;;;;;;5112902;28;20024;-62
2024/02/05 11:36:28;;;;;;;35.70;7.43;;;;;;;;;;5108014;28;20284;-62
2024/02/05 11:39:04;;;;;;;22.90;6.40;;;;;;;;;;5106308;28;20269;-62
2024/02/05 11:41:29;;;;;;;26.87;6.03;;;;;;;;;;5111125;28;20041;-61
2024/02/05 11:44:02;;;;;;;29.48;7.28;;;;;;;;;;5113514;28;20253;-63
2024/02/05 11:46:28;;;;;;;29.77;6.37;;;;;;;;;;5116134;28;20061;-61
2024/02/05 11:48:54;;;;;;;33.47;6.57;;;;;;;;;;5112513;28;20284;-62
2024/02/05 11:51:19;;;;;;;23.07;5.40;;;;;;;;;;5113358;28;20291;-61
2024/02/05 11:53:48;;;;;;;43.42;7.22;;;;;;;;;;5115952;28;20024;-62
2024/02/05 11:56:14;;;;;;;35.97;6.87;;;;;;;;;;5114826;28;20037;-61
2024/02/05 11:58:42;;;;;;;24.67;6.95;;;;;;;;;;5114069;28;20054;-61
2024/02/05 12:01:11;;;;;;;23.50;5.23;;;;;;;;;;5115529;28;20098;-64
2024/02/05 12:03:37;;;;;;;26.37;6.47;;;;;;;;;;5115873;28;20028;-62
2024/02/05 12:06:03;;;;;;;21.70;6.20;;;;;;;;;;5113233;28;20109;-62
2024/02/05 12:08:30;;;;;;;34.13;8.23;;;;;;;;;;5105911;28;20039;-62
2024/02/05 12:10:55;;;;;;;27.65;7.28;;;;;;;;;;5113949;28;20032;-61
2024/02/05 12:13:21;;;;;;;33.28;6.82;;;;;;;;;;5112354;28;20040;-62
2024/02/05 12:15:47;;;;;;;25.85;6.07;;;;;;;;;;5118008;28;20024;-62
2024/02/05 12:18:13;;;;;;;28.75;6.05;;;;;;;;;;5107947;28;20047;-62
2024/02/05 12:20:38;;;;;;;22.13;6.40;;;;;;;;;;5115340;28;20095;-61
2024/02/05 12:23:05;;;;;;;29.23;6.82;;;;;;;;;;5107399;28;20040;-62
2024/02/05 12:25:31;;;;;;;38.20;7.80;;;;;;;;;;5115696;28;20028;-62
2024/02/05 12:27:56;;;;;;;30.73;6.50;;;;;;;;;;5103442;28;20055;-62
2024/02/05 12:30:22;;;;;;;31.15;6.78;;;;;;;;;;5109435;28;20028;-61
2024/02/05 12:32:51;;;;;;;29.20;6.82;;;;;;;;;;5116330;28;20020;-62
2024/02/05 12:35:17;;;;;;;31.87;7.50;;;;;;;;;;5109855;28;20049;-62
2024/02/05 12:37:42;;;;;;;31.65;6.75;;;;;;;;;;5114909;28;20051;-61
2024/02/05 12:40:09;;;;;;;24.73;5.15;;;;;;;;;;5117068;28;20032;-62
2024/02/05 12:42:34;;;;;;;;;;;;;;;;;;5108861;28;20376;-60
2024/02/05 12:45:00;;;;;;;31.63;6.53;;;;;;;;;;5104992;28;19993;-62
2024/02/05 12:47:25;;;;;;;36.30;7.75;;;;;;;;;;5099919;28;20032;-62
2024/02/05 12:49:51;;;;;;;29.20;6.20;;;;;;;;;;5106575;28;20087;-61
2024/02/05 12:52:17;;;;;;;34.58;7.63;;;;;;;;;;5114467;28;20102;-61
2024/02/05 12:54:44;;;;;;;36.80;6.07;;;;;;;;;;5108925;28;20052;-61
2024/02/05 12:57:09;;;;;;;25.07;6.97;;;;;;;;;;5125022;28;20050;-62
2024/02/05 12:59:36;;;;;;;34.50;7.00;;;;;;;;;;5107837;28;20273;-62
2024/02/05 13:02:01;;;;;;;33.63;7.15;;;;;;;;;;5113292;28;20036;-61
2024/02/05 13:04:27;;;;;;;30.70;7.60;;;;;;;;;;5110862;28;20045;-61
2024/02/05 13:07:05;;;;;;;26.70;5.55;;;;;;;;;;5107589;28;20029;-62
2024/02/05 13:09:32;;;;;;;33.37;6.07;;;;;;;;;;5114261;28;20042;-61
2024/02/05 13:11:57;;;;;;;;;;;;;;;;;;5111754;28;20024;-61
2024/02/05 13:14:22;;;;;;;36.10;6.50;;;;;;;;;;5112153;28;19908;-61
2024/02/05 13:16:50;;;;;;;26.92;6.60;;;;;;;;;;5110804;28;20032;-62
2024/02/05 13:19:16;;;;;;;22.00;6.63;;;;;;;;;;5110829;28;20566;-62
2024/02/05 13:21:41;;;;;;;30.60;6.53;;;;;;;;;;5109613;28;20054;-61
2024/02/05 13:24:08;;;;;;;39.53;7.77;;;;;;;;;;5108553;28;20040;-60
2024/02/05 13:26:38;;;;;;;37.50;6.73;;;;;;;;;;5104924;28;20058;-62
2024/02/05 13:29:03;;;;;;;23.53;5.53;;;;;;;;;;5115659;28;20273;-61
2024/02/05 13:31:29;;;;;;;31.25;7.10;;;;;;;;;;5112585;28;20023;-62
2024/02/05 13:33:54;;;;;;;32.17;6.50;;;;;;;;;;5114516;28;20031;-61
2024/02/05 13:36:20;;;;;;;26.58;5.60;;;;;;;;;;5112260;28;20027;-62
2024/02/05 13:38:45;;;;;;;23.10;5.90;;;;;;;;;;5107281;28;20056;-62
2024/02/05 13:41:11;;;;;;;25.35;6.60;;;;;;;;;;5117136;28;20298;-62
2024/02/05 13:43:36;;;;;;;31.40;5.90;;;;;;;;;;5110068;28;20024;-62
2024/02/05 13:46:03;;;;;;;28.88;6.95;;;;;;;;;;5114493;28;20031;-61
2024/02/05 13:48:29;;;;;;;30.80;7.30;;;;;;;;;;5101185;28;20092;-61
2024/02/05 13:50:56;;;;;;;30.77;7.43;;;;;;;;;;5113881;28;20267;-61
2024/02/05 13:53:21;;;;;;;26.10;5.97;;;;;;;;;;5110813;28;20293;-61
2024/02/05 13:55:47;;;;;;;28.65;6.45;;;;;;;;;;5103562;28;20025;-61
2024/02/05 13:58:12;;;;;;;31.43;7.83;;;;;;;;;;5103484;28;20043;-61
2024/02/05 14:00:38;;;;;;;19.02;5.10;;;;;;;;;;5114424;28;20100;-61
2024/02/05 14:03:05;;;;;;;22.70;5.37;;;;;;;;;;5124563;28;20046;-61
2024/02/05 14:05:30;;;;;;;31.47;6.20;;;;;;;;;;5112888;28;20276;-61
2024/02/05 14:07:56;;;;;;;31.75;5.43;;;;;;;;;;5112747;28;20281;-61
2024/02/05 14:10:22;;;;;;;22.95;5.15;;;;;;;;;;5109074;28;20028;-61
2024/02/05 14:12:47;;;;;;;21.43;4.00;;;;;;;;;;5099953;28;20043;-61
2024/02/05 14:15:13;;;;;;;16.80;4.40;;;;;;;;;;5107297;28;20024;-60
2024/02/05 14:17:38;;;;;;;26.03;6.33;;;;;;;;;;5106162;28;20062;-61
2024/02/05 14:20:04;;;;;;;29.90;4.85;;;;;;;;;;5118068;28;20049;-62
2024/02/05 14:22:30;;;;;;;19.23;3.72;;;;;;;;;;5109557;28;20028;-61
2024/02/05 14:24:56;;;;;;;21.67;4.18;;;;;;;;;;5109826;28;20028;-62